Time;durP1;ratioP1;P1;durP2;ratioP2;P2;SDS_P1;SDS_P2;PMS_P1;PMS_P2;Temp;Humidity;BMP_temperature;BMP_pressure;BME280_temperature;BME280_humidity;BME280_pressure;Samples;Min_cycle;Max_cycle;Signal;HPM_P1;HPM_P2
2022/06/17 00:01:23;;;;;;;2.13;2.00;;;22.90;46.40;;;;;;5036485;28;20291;-72
2022/06/17 00:03:51;;;;;;;3.15;2.00;;;22.90;46.40;;;;;;5035061;28;20263;-72
2022/06/17 00:06:18;;;;;;;2.40;2.20;;;22.90;46.40;;;;;;5035227;28;20204;-72
2022/06/17 00:08:46;;;;;;;2.50;2.30;;;22.90;46.40;;;;;;5036310;28;20216;-71
2022/06/17 00:11:14;;;;;;;2.60;2.15;;;22.90;46.40;;;;;;5036375;28;20262;-72
2022/06/17 00:13:43;;;;;;;2.47;2.28;;;22.90;46.30;;;;;;5035021;28;20204;-72
2022/06/17 00:16:11;;;;;;;1.90;1.80;;;22.90;46.30;;;;;;5035006;28;20188;-71
2022/06/17 00:18:38;;;;;;;3.05;2.10;;;22.80;46.20;;;;;;5037165;28;20196;-71
2022/06/17 00:21:05;;;;;;;2.15;1.92;;;22.80;46.30;;;;;;5036177;28;20227;-71
2022/06/17 00:23:32;;;;;;;2.58;2.17;;;22.80;46.40;;;;;;5036653;28;20223;-71
2022/06/17 00:25:59;;;;;;;2.30;2.08;;;22.80;46.20;;;;;;5034980;28;20226;-71
2022/06/17 00:28:28;;;;;;;4.45;2.17;;;22.80;46.30;;;;;;5034609;28;20212;-72
2022/06/17 00:30:56;;;;;;;2.60;2.40;;;22.80;46.50;;;;;;5034760;28;20279;-71
2022/06/17 00:33:23;;;;;;;2.30;2.10;;;22.80;46.40;;;;;;5034556;28;20254;-72
2022/06/17 00:35:51;;;;;;;3.53;2.17;;;22.70;46.40;;;;;;5035595;28;20203;-71
2022/06/17 00:38:20;;;;;;;2.53;2.00;;;22.70;46.40;;;;;;5034505;28;20687;-72
2022/06/17 00:40:47;;;;;;;2.20;2.00;;;22.70;46.40;;;;;;5034268;28;20196;-71
2022/06/17 00:43:23;;;;;;;3.95;1.98;;;22.70;46.30;;;;;;5036400;28;20238;-71
2022/06/17 00:45:52;;;;;;;2.45;2.15;;;22.70;46.30;;;;;;5034533;28;20249;-72
2022/06/17 00:48:23;;;;;;;4.00;1.92;;;22.70;46.40;;;;;;5035337;28;20693;-71
2022/06/17 00:50:53;;;;;;;3.10;2.00;;;22.70;47.00;;;;;;5034081;28;20184;-72
2022/06/17 00:53:22;;;;;;;2.33;2.13;;;22.70;46.40;;;;;;5034734;28;20590;-71
2022/06/17 00:55:51;;;;;;;2.58;1.92;;;22.70;46.40;;;;;;5034199;28;20196;-71
2022/06/17 00:58:19;;;;;;;2.22;2.03;;;22.70;46.50;;;;;;5035429;28;20279;-72
2022/06/17 01:00:48;;;;;;;2.88;2.30;;;22.60;46.40;;;;;;5034216;28;20258;-71
2022/06/17 01:03:19;;;;;;;3.10;2.10;;;22.60;46.50;;;;;;5032976;28;20199;-71
2022/06/17 01:05:50;;;;;;;2.38;1.90;;;22.60;46.40;;;;;;5035634;28;20242;-72
2022/06/17 01:09:57;;;;;;;2.22;2.03;;;22.60;46.50;;;;;;5034210;28;20216;-71
2022/06/17 01:11:09;;;;;;;2.15;2.05;;;22.60;46.50;;;;;;5033671;28;20222;-72
2022/06/17 01:13:37;;;;;;;2.20;2.00;;;22.60;46.50;;;;;;5033982;28;20604;-71
2022/06/17 01:16:04;;;;;;;1.90;1.80;;;22.60;46.60;;;;;;5033876;28;20196;-71
2022/06/17 01:18:32;;;;;;;2.17;1.98;;;22.50;46.50;;;;;;5034494;28;20239;-71
2022/06/17 01:21:09;;;;;;;1.88;1.77;;;22.50;46.50;;;;;;5033810;28;20216;-72
2022/06/17 01:23:37;;;;;;;2.00;1.90;;;22.50;46.60;;;;;;5034096;28;20203;-71
2022/06/17 01:26:04;;;;;;;3.22;2.30;;;22.50;46.70;;;;;;5033744;28;20196;-72
2022/06/17 01:28:31;;;;;;;1.92;1.70;;;22.50;46.60;;;;;;5033358;28;20212;-71
2022/06/17 01:30:59;;;;;;;2.17;2.05;;;22.50;46.60;;;;;;5034609;28;20724;-71
2022/06/17 01:33:27;;;;;;;2.45;2.00;;;22.40;46.50;;;;;;5033882;28;20250;-72
2022/06/17 01:35:55;;;;;;;3.10;2.13;;;22.40;46.60;;;;;;5033447;28;20196;-71
2022/06/17 01:38:22;;;;;;;3.05;2.13;;;22.40;46.60;;;;;;5033310;28;20203;-71
2022/06/17 01:40:51;;;;;;;2.40;2.20;;;22.40;46.70;;;;;;5033075;28;20203;-71
2022/06/17 01:43:19;;;;;;;2.20;2.00;;;22.40;46.80;;;;;;5033550;28;20192;-71
2022/06/17 01:45:49;;;;;;;2.33;2.05;;;22.40;46.80;;;;;;5033480;28;20203;-71
2022/06/17 01:48:15;;;;;;;2.13;1.92;;;22.40;46.80;;;;;;5034186;28;20240;-71
2022/06/17 01:50:43;;;;;;;3.20;1.98;;;22.40;46.90;;;;;;5033041;28;20197;-72
2022/06/17 01:53:11;;;;;;;2.67;2.03;;;22.40;46.90;;;;;;5033299;28;20621;-71
2022/06/17 01:55:40;;;;;;;2.42;2.08;;;22.30;46.80;;;;;;5033343;28;20200;-71
2022/06/17 01:58:14;;;;;;;2.20;2.00;;;22.30;46.80;;;;;;5033327;28;20189;-72
2022/06/17 02:00:42;;;;;;;3.08;2.00;;;22.30;46.80;;;;;;5032795;28;20195;-72
2022/06/17 02:03:12;;;;;;;2.30;2.10;;;22.30;46.80;;;;;;5034013;28;20190;-71
2022/06/17 02:05:40;;;;;;;2.65;2.10;;;22.30;46.70;;;;;;5032858;28;20283;-71
2022/06/17 02:08:07;;;;;;;2.30;2.10;;;22.30;46.80;;;;;;5032850;28;20257;-71
2022/06/17 02:10:36;;;;;;;4.43;2.25;;;22.30;46.80;;;;;;5033065;28;20291;-71
2022/06/17 02:13:04;;;;;;;2.40;2.20;;;22.30;46.90;;;;;;5033001;28;20218;-71
2022/06/17 02:15:40;;;;;;;2.25;2.05;;;22.30;46.90;;;;;;5032494;28;20246;-71
2022/06/17 02:18:15;;;;;;;2.35;2.10;;;22.20;46.90;;;;;;5032834;28;20656;-72
2022/06/17 02:20:55;;;;;;;2.28;2.08;;;22.20;46.80;;;;;;5032523;28;20286;-71
2022/06/17 02:23:23;;;;;;;1.85;1.75;;;22.20;46.90;;;;;;5033390;28;20197;-72
2022/06/17 02:25:53;;;;;;;2.17;2.00;;;22.20;47.50;;;;;;5033267;28;20199;-71
2022/06/17 02:28:20;;;;;;;2.83;2.17;;;22.20;46.90;;;;;;5032291;28;20224;-72
2022/06/17 02:30:49;;;;;;;2.20;2.00;;;22.20;46.90;;;;;;5033703;28;20262;-72
2022/06/17 02:33:16;;;;;;;3.17;2.25;;;22.20;46.90;;;;;;5032453;28;20196;-72
2022/06/17 02:35:45;;;;;;;2.47;2.10;;;22.20;47.00;;;;;;5032794;28;20307;-71
2022/06/17 02:38:13;;;;;;;2.30;2.10;;;22.10;46.90;;;;;;5032241;28;20279;-71
2022/06/17 02:40:40;;;;;;;3.65;2.08;;;22.10;46.90;;;;;;5032221;28;20196;-71
2022/06/17 02:43:12;;;;;;;2.42;2.22;;;22.10;46.80;;;;;;5032221;28;20203;-72
2022/06/17 02:45:42;;;;;;;2.05;1.90;;;22.10;46.80;;;;;;5032330;28;20198;-70
2022/06/17 02:48:18;;;;;;;1.90;1.80;;;22.10;46.70;;;;;;5032487;28;20719;-71
2022/06/17 02:50:45;;;;;;;2.30;2.10;;;22.10;46.70;;;;;;5032123;28;20199;-71
2022/06/17 02:53:14;;;;;;;2.20;2.00;;;22.10;46.70;;;;;;5032243;28;20205;-71
2022/06/17 02:55:41;;;;;;;2.50;2.30;;;22.10;46.70;;;;;;5032483;28;20191;-71
2022/06/17 02:58:13;;;;;;;2.22;2.03;;;22.10;46.90;;;;;;5032077;28;20232;-71
2022/06/17 03:00:40;;;;;;;2.83;2.20;;;22.10;46.90;;;;;;5032093;28;20206;-70
2022/06/17 03:03:07;;;;;;;3.05;2.28;;;22.00;46.80;;;;;;5032333;28;20203;-71
2022/06/17 03:05:39;;;;;;;3.08;2.10;;;22.00;46.90;;;;;;5032097;28;20680;-71
2022/06/17 03:08:14;;;;;;;2.22;2.00;;;22.00;46.90;;;;;;5032131;28;20619;-71
2022/06/17 03:10:42;;;;;;;2.63;2.13;;;22.00;47.00;;;;;;5032006;28;20241;-71
2022/06/17 03:13:13;;;;;;;2.33;2.10;;;22.00;46.90;;;;;;5032402;28;20192;-71
2022/06/17 03:15:40;;;;;;;2.40;2.20;;;22.00;47.00;;;;;;5032533;28;20196;-71
2022/06/17 03:18:07;;;;;;;2.38;2.00;;;22.00;47.00;;;;;;5032057;28;20287;-71
2022/06/17 03:20:34;;;;;;;2.47;1.88;;;22.00;46.90;;;;;;5031997;28;20290;-71
2022/06/17 03:23:06;;;;;;;2.60;2.00;;;22.00;46.90;;;;;;5031953;28;20216;-71
2022/06/17 03:25:37;;;;;;;2.28;2.10;;;22.00;46.90;;;;;;5032142;28;20198;-72
2022/06/17 03:28:07;;;;;;;3.08;2.20;;;22.10;46.70;;;;;;5035394;28;20303;-71
2022/06/17 03:30:36;;;;;;;2.72;2.00;;;22.10;46.60;;;;;;5034116;23;20286;-71
2022/06/17 03:33:06;;;;;;;3.63;2.10;;;22.10;46.60;;;;;;5015829;28;20252;-71
2022/06/17 03:35:34;;;;;;;2.28;2.00;;;22.10;46.50;;;;;;5015824;28;20200;-71
2022/06/17 03:38:05;;;;;;;2.35;2.10;;;22.10;46.50;;;;;;5015798;28;20674;-71
2022/06/17 03:40:37;;;;;;;3.03;2.00;;;22.10;46.50;;;;;;5016388;28;20215;-71
2022/06/17 03:43:07;;;;;;;2.58;2.10;;;22.10;46.50;;;;;;5015604;28;20577;-70
2022/06/17 03:45:43;;;;;;;2.40;2.15;;;22.10;46.60;;;;;;5016218;28;20196;-72
2022/06/17 03:48:20;;;;;;;2.40;2.03;;;22.20;46.70;;;;;;5015491;28;20272;-71
2022/06/17 03:50:48;;;;;;;2.10;1.90;;;22.10;46.60;;;;;;5015521;28;20287;-71
2022/06/17 03:53:24;;;;;;;2.15;2.00;;;22.20;46.70;;;;;;5016107;28;20280;-71
2022/06/17 03:55:51;;;;;;;2.10;1.90;;;22.20;46.80;;;;;;5016936;28;20243;-71
2022/06/17 03:58:19;;;;;;;3.15;2.22;;;22.20;46.70;;;;;;5015265;28;20220;-71
2022/06/17 04:00:54;;;;;;;2.40;2.20;;;22.20;47.20;;;;;;5015621;28;20216;-71
2022/06/17 04:03:23;;;;;;;2.42;2.22;;;22.20;46.90;;;;;;5015606;28;20283;-71
2022/06/17 04:05:52;;;;;;;3.08;2.35;;;22.20;46.90;;;;;;5015399;28;20197;-71
2022/06/17 04:08:20;;;;;;;2.47;2.00;;;22.20;46.90;;;;;;5015292;28;20267;-72
2022/06/17 04:10:48;;;;;;;2.28;2.10;;;22.20;47.10;;;;;;5015317;28;20700;-70
2022/06/17 04:13:17;;;;;;;2.30;2.20;;;22.20;47.10;;;;;;5015498;28;20692;-71
2022/06/17 04:16:01;;;;;;;2.42;2.15;;;22.20;47.20;;;;;;5015505;28;20227;-71
2022/06/17 04:18:33;;;;;;;2.40;2.20;;;22.10;47.10;;;;;;5017338;28;20184;-71
2022/06/17 04:21:00;;;;;;;2.30;2.10;;;22.10;47.80;;;;;;5017348;28;20213;-70
2022/06/17 04:23:31;;;;;;;2.40;2.20;;;22.10;47.20;;;;;;5017510;28;20193;-71
2022/06/17 04:26:16;;;;;;;2.40;2.20;;;22.10;47.30;;;;;;5018303;28;20196;-68
2022/06/17 04:28:45;;;;;;;2.40;2.20;;;22.10;47.40;;;;;;5015841;28;20234;-71
2022/06/17 04:31:18;;;;;;;2.58;2.38;;;22.00;47.50;;;;;;5015110;28;20721;-70
2022/06/17 04:33:49;;;;;;;3.55;2.25;;;21.80;48.20;;;;;;5015664;28;20213;-70
2022/06/17 04:36:26;;;;;;;3.80;2.40;;;21.60;48.60;;;;;;5016648;28;20303;-71
2022/06/17 04:38:56;;;;;;;3.15;2.35;;;21.60;48.70;;;;;;5015491;28;20576;-71
2022/06/17 04:41:47;;;;;;;2.85;2.38;;;21.50;48.80;;;;;;5015641;28;20220;-69
2022/06/17 04:44:23;;;;;;;2.65;2.42;;;21.40;49.10;;;;;;5016281;28;20169;-71
2022/06/17 04:46:51;;;;;;;3.42;2.40;;;21.40;49.70;;;;;;5015928;28;20197;-71
2022/06/17 04:49:42;;;;;;;2.78;2.30;;;21.30;49.20;;;;;;5015065;28;20219;-71
2022/06/17 04:52:26;;;;;;;4.82;2.30;;;21.40;49.40;;;;;;5015234;28;20227;-71
2022/06/17 04:54:59;;;;;;;3.75;2.63;;;21.40;49.50;;;;;;5015805;28;20242;-71
2022/06/17 04:57:52;;;;;;;3.05;2.53;;;21.50;49.60;;;;;;5015114;28;20196;-71
2022/06/17 05:00:22;;;;;;;2.50;2.30;;;21.50;49.40;;;;;;5017273;28;20193;-71
2022/06/17 05:02:51;;;;;;;2.60;2.40;;;21.70;49.40;;;;;;5014045;28;20271;-71
2022/06/17 05:05:27;;;;;;;2.60;2.40;;;21.90;49.50;;;;;;5014222;28;20215;-71
2022/06/17 05:07:55;;;;;;;4.25;2.45;;;22.10;49.20;;;;;;5017551;28;20220;-71
2022/06/17 05:10:26;;;;;;;2.80;2.42;;;22.40;48.90;;;;;;5014113;28;20716;-70
2022/06/17 05:12:57;;;;;;;2.63;2.35;;;22.60;48.50;;;;;;5015388;28;20694;-71
2022/06/17 05:15:25;;;;;;;3.50;2.47;;;22.80;48.40;;;;;;5013981;28;20193;-71
2022/06/17 05:17:54;;;;;;;2.70;2.50;;;23.00;48.20;;;;;;5013908;28;20201;-71
2022/06/17 05:20:22;;;;;;;2.75;2.20;;;23.20;47.70;;;;;;5014118;28;20637;-71
2022/06/17 05:22:51;;;;;;;3.05;2.30;;;23.30;47.30;;;;;;5020079;28;20760;-71
2022/06/17 05:25:19;;;;;;;3.28;2.30;;;23.50;47.00;;;;;;5015676;28;20287;-71
2022/06/17 05:27:47;;;;;;;3.35;2.25;;;23.60;46.80;;;;;;5014149;28;20748;-72
2022/06/17 05:30:18;;;;;;;3.15;2.50;;;23.70;46.30;;;;;;5014116;28;20232;-71
2022/06/17 05:32:48;;;;;;;2.40;2.20;;;23.90;46.50;;;;;;5013883;28;20220;-70
2022/06/17 05:35:16;;;;;;;3.40;2.33;;;23.90;46.30;;;;;;5014312;28;20220;-71
2022/06/17 05:37:45;;;;;;;4.22;2.40;;;24.00;46.10;;;;;;5014076;28;20197;-71
2022/06/17 05:40:14;;;;;;;2.42;2.22;;;24.10;46.00;;;;;;5014431;28;20199;-71
2022/06/17 05:42:44;;;;;;;2.80;2.60;;;24.20;45.60;;;;;;5015423;28;20205;-71
2022/06/17 05:45:15;;;;;;;2.63;2.42;;;24.40;45.40;;;;;;5014297;28;20674;-71
2022/06/17 05:48:02;;;;;;;4.93;3.05;;;24.60;45.10;;;;;;5015398;28;20761;-71
2022/06/17 05:50:55;;;;;;;3.03;2.70;;;24.80;45.00;;;;;;4995553;28;20197;-71
2022/06/17 05:53:30;;;;;;;3.05;2.53;;;25.00;44.50;;;;;;5014057;28;20687;-71
2022/06/17 05:56:24;;;;;;;3.15;2.40;;;25.10;43.90;;;;;;4991980;28;20207;-71
2022/06/17 05:58:51;;;;;;;4.65;2.78;;;25.20;43.50;;;;;;5014494;28;20197;-71
2022/06/17 06:01:18;;;;;;;3.10;2.80;;;25.30;43.20;;;;;;5014561;28;20303;-72
2022/06/17 06:03:48;;;;;;;3.30;2.42;;;25.40;43.00;;;;;;5014455;28;20219;-71
2022/06/17 06:06:15;;;;;;;3.53;2.53;;;25.40;43.30;;;;;;5014400;28;20296;-71
2022/06/17 06:08:46;;;;;;;3.00;2.58;;;25.50;42.60;;;;;;5014892;28;20209;-71
2022/06/17 06:11:14;;;;;;;4.00;2.55;;;25.60;42.40;;;;;;5013905;28;20597;-71
2022/06/17 06:13:44;;;;;;;3.20;2.75;;;25.70;42.30;;;;;;5014145;28;20223;-71
2022/06/17 06:16:13;;;;;;;2.70;2.30;;;25.80;42.20;;;;;;5013365;28;20223;-71
2022/06/17 06:18:45;;;;;;;4.45;2.42;;;25.90;42.60;;;;;;5013512;28;20255;-71
2022/06/17 06:21:21;;;;;;;4.15;2.45;;;26.00;41.60;;;;;;5015829;28;20319;-72
2022/06/17 06:23:49;;;;;;;3.20;2.42;;;26.20;41.70;;;;;;5012777;28;20697;-72
2022/06/17 06:26:24;;;;;;;5.07;2.55;;;26.20;41.40;;;;;;5012922;28;20283;-72
2022/06/17 06:29:07;;;;;;;3.35;2.60;;;26.40;41.30;;;;;;5012617;28;20251;-72
2022/06/17 06:31:38;;;;;;;3.42;2.40;;;26.40;41.00;;;;;;5012915;28;20303;-72
2022/06/17 06:34:10;;;;;;;3.28;2.35;;;26.50;40.90;;;;;;5013186;28;20197;-73
2022/06/17 06:36:43;;;;;;;2.58;2.25;;;26.60;40.80;;;;;;5012687;28;20192;-72
2022/06/17 06:39:10;;;;;;;2.70;2.50;;;26.60;40.60;;;;;;5012701;28;20251;-72
2022/06/17 06:41:38;;;;;;;3.53;2.70;;;26.70;40.50;;;;;;5012474;28;20276;-72
2022/06/17 06:44:05;;;;;;;2.83;2.40;;;26.70;40.40;;;;;;5013736;28;20227;-72
2022/06/17 06:46:50;;;;;;;2.50;2.30;;;26.70;40.40;;;;;;5013957;28;20184;-72
2022/06/17 06:49:41;;;;;;;3.45;2.60;;;26.80;40.40;;;;;;5008250;28;20665;-72
2022/06/17 06:52:09;;;;;;;2.67;2.45;;;26.90;40.10;;;;;;5012368;28;20270;-72
2022/06/17 06:54:36;;;;;;;2.95;2.65;;;27.00;40.00;;;;;;5012505;28;20207;-72
2022/06/17 06:57:06;;;;;;;3.33;2.40;;;27.10;39.90;;;;;;5013506;28;20188;-72
2022/06/17 06:59:34;;;;;;;3.15;2.40;;;27.20;40.30;;;;;;5012395;28;20670;-72
2022/06/17 07:02:01;;;;;;;4.40;2.50;;;27.20;39.60;;;;;;5015759;28;20220;-70
2022/06/17 07:04:27;;;;;;;2.72;2.42;;;27.30;39.50;;;;;;5016348;28;20204;-70
2022/06/17 07:06:54;;;;;;;3.92;2.42;;;27.40;39.40;;;;;;5016429;28;20287;-70
2022/06/17 07:09:23;;;;;;;2.63;2.20;;;27.40;39.30;;;;;;5016248;28;20224;-70
2022/06/17 07:11:50;;;;;;;3.40;2.42;;;27.40;39.20;;;;;;5017472;28;20216;-70
2022/06/17 07:14:17;;;;;;;2.97;2.17;;;27.40;39.20;;;;;;5016520;28;20236;-70
2022/06/17 07:16:44;;;;;;;2.42;2.17;;;27.50;39.30;;;;;;5016472;28;20196;-69
2022/06/17 07:19:12;;;;;;;2.60;2.40;;;27.50;39.30;;;;;;5020123;28;20259;-70
2022/06/17 07:21:40;;;;;;;2.40;2.20;;;27.50;39.50;;;;;;5031758;28;20723;-70
2022/06/17 07:24:07;;;;;;;3.08;2.28;;;27.60;39.60;;;;;;5018359;28;20214;-70
2022/06/17 07:26:36;;;;;;;2.60;2.22;;;27.60;39.70;;;;;;5017692;28;20195;-70
2022/06/17 07:29:02;;;;;;;2.53;2.33;;;27.70;39.70;;;;;;5017031;28;20245;-70
2022/06/17 07:31:29;;;;;;;3.75;2.10;;;27.70;39.70;;;;;;5015808;28;20223;-70
2022/06/17 07:33:57;;;;;;;2.50;2.17;;;27.70;39.60;;;;;;5015867;28;20287;-70
2022/06/17 07:41:57;;;;;;;3.20;1.95;;;27.90;39.40;;;;;;5015799;28;20712;-69
2022/06/17 07:44:24;;;;;;;3.25;2.10;;;27.90;39.30;;;;;;5016034;28;20250;-70
2022/06/17 07:46:51;;;;;;;2.40;2.20;;;27.90;39.30;;;;;;5016819;28;20188;-70
2022/06/17 07:49:18;;;;;;;2.65;2.45;;;28.00;39.30;;;;;;5015816;28;20220;-70
2022/06/17 07:51:46;;;;;;;2.85;2.30;;;28.00;39.30;;;;;;5016856;28;20212;-70
2022/06/17 07:54:13;;;;;;;3.05;2.10;;;28.00;39.30;;;;;;5016885;28;20238;-70
2022/06/17 07:56:40;;;;;;;2.35;2.08;;;28.00;39.20;;;;;;5016824;28;20733;-70
2022/06/17 07:59:09;;;;;;;2.80;2.38;;;28.00;39.20;;;;;;5016926;28;20219;-70
2022/06/17 08:01:36;;;;;;;2.80;2.10;;;28.00;39.20;;;;;;5016127;28;20220;-68
2022/06/17 08:04:03;;;;;;;2.20;2.00;;;28.00;39.20;;;;;;5017415;28;20215;-70
2022/06/17 08:06:30;;;;;;;2.35;2.15;;;28.00;39.20;;;;;;5015443;28;20196;-70
2022/06/17 08:08:57;;;;;;;2.40;2.20;;;28.00;39.10;;;;;;5015987;28;20223;-70
2022/06/17 08:11:25;;;;;;;2.60;2.17;;;28.00;39.10;;;;;;5016632;28;20259;-70
2022/06/17 08:13:52;;;;;;;2.30;2.10;;;28.10;39.10;;;;;;5015481;28;20204;-70
2022/06/17 08:16:20;;;;;;;2.38;2.20;;;28.10;39.00;;;;;;5016820;28;20271;-70
2022/06/17 08:18:47;;;;;;;3.50;2.13;;;28.10;38.90;;;;;;5015523;28;20556;-70
2022/06/17 08:21:14;;;;;;;2.70;2.13;;;28.20;38.90;;;;;;5015660;28;20589;-70
2022/06/17 08:23:41;;;;;;;2.20;2.00;;;28.20;38.80;;;;;;5015648;28;20211;-70
2022/06/17 08:26:08;;;;;;;2.33;2.13;;;28.20;38.70;;;;;;5018222;28;20227;-70
2022/06/17 08:28:35;;;;;;;1.92;1.80;;;28.30;38.80;;;;;;5018795;28;20210;-70
2022/06/17 08:31:02;;;;;;;2.38;2.17;;;28.30;38.80;;;;;;5018120;28;20230;-70
2022/06/17 08:33:31;;;;;;;2.75;2.00;;;28.30;38.70;;;;;;5015133;28;20279;-70
2022/06/17 08:36:00;;;;;;;2.38;2.05;;;28.30;38.70;;;;;;5016345;28;20192;-69
2022/06/17 08:38:28;;;;;;;2.40;2.20;;;28.30;38.60;;;;;;5015141;28;20267;-70
2022/06/17 08:40:57;;;;;;;2.38;2.00;;;28.30;38.50;;;;;;5014837;28;20192;-70
2022/06/17 08:43:35;;;;;;;2.75;2.20;;;28.40;38.50;;;;;;5014904;28;20246;-70
2022/06/17 08:46:09;;;;;;;2.17;1.98;;;28.40;38.50;;;;;;5014794;28;20184;-70
2022/06/17 08:48:44;;;;;;;2.47;2.00;;;28.40;38.40;;;;;;5015874;28;20552;-70
2022/06/17 08:51:20;;;;;;;2.58;2.38;;;28.40;38.30;;;;;;5016058;28;20341;-70
2022/06/17 08:54:06;;;;;;;2.30;2.10;;;28.50;38.30;;;;;;5015896;28;20176;-70
2022/06/17 08:56:36;;;;;;;1.95;1.80;;;28.50;38.30;;;;;;5014477;28;20235;-70
2022/06/17 08:59:13;;;;;;;2.97;2.10;;;28.50;38.30;;;;;;5015041;28;20204;-70
2022/06/17 09:01:44;;;;;;;2.67;2.10;;;28.50;38.10;;;;;;5014782;28;20224;-69
2022/06/17 09:04:21;;;;;;;2.70;2.03;;;28.50;38.20;;;;;;5014983;28;20189;-70
2022/06/17 09:06:56;;;;;;;2.47;2.20;;;28.50;38.30;;;;;;5014638;28;20200;-70
2022/06/17 09:09:33;;;;;;;2.30;1.88;;;28.40;38.10;;;;;;5014581;28;20233;-70
2022/06/17 09:12:03;;;;;;;2.25;2.03;;;28.40;38.20;;;;;;5016254;28;20290;-70
2022/06/17 09:14:36;;;;;;;2.17;2.00;;;28.40;38.20;;;;;;5014722;28;20192;-70
2022/06/17 09:17:07;;;;;;;2.50;2.08;;;28.40;38.20;;;;;;5014654;28;20672;-70
2022/06/17 09:19:37;;;;;;;2.88;2.20;;;28.40;38.20;;;;;;5015597;28;20595;-70
2022/06/17 09:22:08;;;;;;;2.53;1.98;;;28.40;38.20;;;;;;5016053;28;20780;-70
2022/06/17 09:24:39;;;;;;;2.20;2.00;;;28.40;38.20;;;;;;5013442;28;20214;-70
2022/06/17 09:27:07;;;;;;;2.35;2.20;;;28.40;38.20;;;;;;5015860;28;20176;-69
2022/06/17 09:29:38;;;;;;;1.92;1.83;;;28.40;38.20;;;;;;5014105;28;20224;-70
2022/06/17 09:32:07;;;;;;;2.00;1.80;;;28.40;38.20;;;;;;5013782;28;20306;-69
2022/06/17 09:34:39;;;;;;;2.10;1.90;;;28.40;38.30;;;;;;5013615;28;20250;-70
2022/06/17 09:37:11;;;;;;;2.28;2.08;;;28.40;38.40;;;;;;5014994;28;20529;-70
2022/06/17 09:39:42;;;;;;;2.75;2.13;;;28.40;38.40;;;;;;5013884;28;20626;-70
2022/06/17 09:42:11;;;;;;;2.05;1.80;;;28.40;38.50;;;;;;5014795;28;20235;-69
2022/06/17 09:44:40;;;;;;;2.00;1.80;;;28.40;38.40;;;;;;5013348;28;20192;-71
2022/06/17 09:47:09;;;;;;;2.10;1.92;;;28.30;38.40;;;;;;5013745;28;20196;-70
2022/06/17 09:49:39;;;;;;;2.10;1.92;;;28.40;38.60;;;;;;5014016;28;20220;-70
2022/06/17 09:52:08;;;;;;;2.08;1.90;;;28.30;38.60;;;;;;5013711;28;20724;-70
2022/06/17 09:54:36;;;;;;;2.17;1.98;;;28.30;38.70;;;;;;5014447;28;20665;-70
2022/06/17 09:57:06;;;;;;;2.03;1.80;;;28.20;38.70;;;;;;5013651;28;20724;-68
2022/06/17 09:59:35;;;;;;;2.05;1.90;;;28.20;38.70;;;;;;5013325;28;20192;-71
2022/06/17 10:02:12;;;;;;;1.88;1.77;;;28.20;38.80;;;;;;5013159;28;20231;-70
2022/06/17 10:04:40;;;;;;;2.10;1.90;;;28.20;38.80;;;;;;5014322;28;20596;-71
2022/06/17 10:07:13;;;;;;;2.10;1.88;;;28.20;38.80;;;;;;5013045;28;20200;-70
2022/06/17 10:09:47;;;;;;;1.90;1.80;;;28.10;38.80;;;;;;5013084;28;20216;-69
2022/06/17 10:12:17;;;;;;;2.33;2.10;;;28.10;38.90;;;;;;5014311;28;20270;-70
2022/06/17 10:14:51;;;;;;;2.03;1.85;;;28.00;38.90;;;;;;5014491;28;20527;-71
2022/06/17 10:20:15;;;;;;;2.25;2.05;;;28.00;39.10;;;;;;5014035;28;20179;-69
2022/06/17 10:22:46;;;;;;;1.75;1.63;;;27.90;39.10;;;;;;5012841;28;20795;-70
2022/06/17 10:25:25;;;;;;;2.10;1.90;;;27.90;39.30;;;;;;5012883;28;20287;-71
2022/06/17 10:28:14;;;;;;;2.15;1.90;;;27.90;39.50;;;;;;5013894;28;20186;-72
2022/06/17 10:30:42;;;;;;;1.83;1.73;;;27.80;39.50;;;;;;5012632;28;20697;-71
2022/06/17 10:33:11;;;;;;;1.80;1.70;;;27.80;40.20;;;;;;5013857;28;20566;-70
2022/06/17 10:35:39;;;;;;;2.05;1.95;;;27.70;39.70;;;;;;5012309;28;20195;-71
2022/06/17 10:38:07;;;;;;;2.08;1.88;;;27.70;39.70;;;;;;5012595;28;20254;-70
2022/06/17 10:40:53;;;;;;;1.70;1.60;;;27.70;39.90;;;;;;5014018;28;20183;-70
2022/06/17 10:43:22;;;;;;;2.30;2.10;;;27.70;39.90;;;;;;5012542;28;20207;-71
2022/06/17 10:45:50;;;;;;;2.72;1.92;;;27.60;40.00;;;;;;5013664;28;20195;-70
2022/06/17 10:48:29;;;;;;;2.08;1.90;;;27.60;40.10;;;;;;5012752;28;20203;-71
2022/06/17 10:50:58;;;;;;;1.90;1.80;;;27.60;40.20;;;;;;5012356;28;20620;-71
2022/06/17 10:53:28;;;;;;;2.08;1.90;;;27.60;40.30;;;;;;5013518;28;20196;-71
2022/06/17 10:55:57;;;;;;;2.03;1.80;;;27.60;40.30;;;;;;5012387;28;20223;-70
2022/06/17 10:58:26;;;;;;;2.13;1.88;;;27.50;40.30;;;;;;5012386;28;20683;-70
2022/06/17 11:00:56;;;;;;;2.00;1.90;;;27.50;40.40;;;;;;5012175;28;20661;-70
2022/06/17 11:03:26;;;;;;;2.13;1.95;;;27.50;40.50;;;;;;5013522;28;20192;-71
2022/06/17 11:06:00;;;;;;;1.80;1.70;;;27.50;40.60;;;;;;5013617;28;20198;-70
2022/06/17 11:08:30;;;;;;;1.90;1.75;;;27.50;40.60;;;;;;5013532;28;20266;-70
2022/06/17 11:12:02;;;;;;;1.83;1.73;;;27.50;40.70;;;;;;5012113;28;20230;-70
2022/06/17 11:13:46;;;;;;;2.08;1.90;;;27.40;40.70;;;;;;5012287;28;20192;-70
2022/06/17 11:16:15;;;;;;;2.05;1.85;;;27.40;40.80;;;;;;5012124;28;20188;-70
2022/06/17 11:18:45;;;;;;;1.90;1.80;;;27.40;40.90;;;;;;5013450;28;20246;-70
2022/06/17 11:21:21;;;;;;;2.03;1.83;;;27.40;40.90;;;;;;5012052;28;20232;-70
2022/06/17 11:23:50;;;;;;;1.88;1.77;;;27.40;41.00;;;;;;5012187;28;20637;-70
2022/06/17 11:26:18;;;;;;;2.03;1.90;;;27.30;41.00;;;;;;5013310;28;20188;-70
2022/06/17 11:28:46;;;;;;;1.80;1.60;;;27.30;41.00;;;;;;5012617;28;20192;-70
2022/06/17 11:31:15;;;;;;;1.98;1.83;;;27.30;41.10;;;;;;5013207;28;20224;-70
2022/06/17 11:33:56;;;;;;;1.90;1.80;;;27.30;41.20;;;;;;5012416;28;20208;-71
2022/06/17 11:36:26;;;;;;;1.90;1.80;;;27.30;41.20;;;;;;5012081;28;20283;-71
2022/06/17 11:38:54;;;;;;;1.85;1.75;;;27.30;41.30;;;;;;5012041;28;20254;-71
2022/06/17 11:41:22;;;;;;;1.85;1.75;;;27.30;41.30;;;;;;5012022;28;20237;-71
2022/06/17 11:43:49;;;;;;;1.70;1.60;;;27.30;41.20;;;;;;5011867;28;20196;-70
2022/06/17 11:46:17;;;;;;;1.75;1.65;;;27.20;41.20;;;;;;5013227;28;20203;-71
2022/06/17 11:48:46;;;;;;;2.00;1.75;;;27.20;41.20;;;;;;5016184;28;20203;-70
2022/06/17 11:51:16;;;;;;;2.10;1.90;;;27.20;41.20;;;;;;5015336;28;20228;-70
2022/06/17 11:53:47;;;;;;;1.80;1.70;;;27.20;41.30;;;;;;5015588;28;20672;-71
2022/06/17 11:56:28;;;;;;;1.73;1.63;;;27.20;41.30;;;;;;5015499;28;20287;-70
2022/06/17 11:58:56;;;;;;;1.77;1.67;;;27.20;41.40;;;;;;5015597;28;20195;-71
2022/06/17 12:01:23;;;;;;;1.80;1.70;;;27.20;41.40;;;;;;5015413;28;20208;-70
2022/06/17 12:03:50;;;;;;;1.80;1.70;;;27.20;41.40;;;;;;5016074;28;20203;-71
2022/06/17 12:06:25;;;;;;;2.00;1.90;;;27.20;41.40;;;;;;5015491;28;20196;-70
2022/06/17 12:08:56;;;;;;;1.70;1.60;;;27.10;41.50;;;;;;5015363;28;20207;-71
2022/06/17 12:11:28;;;;;;;1.70;1.60;;;27.10;41.50;;;;;;5015361;28;20605;-71
2022/06/17 12:13:57;;;;;;;1.70;1.60;;;27.10;41.60;;;;;;5015262;28;20207;-71
2022/06/17 12:16:25;;;;;;;1.90;1.70;;;27.10;41.70;;;;;;5016513;28;20199;-71
2022/06/17 12:18:53;;;;;;;1.70;1.60;;;27.10;41.80;;;;;;5016739;28;20690;-70
2022/06/17 12:21:29;;;;;;;1.70;1.60;;;27.00;41.80;;;;;;5018241;28;20262;-71
2022/06/17 12:24:01;;;;;;;2.08;1.60;;;27.00;41.90;;;;;;5019137;28;20211;-70
2022/06/17 12:26:29;;;;;;;2.08;1.98;;;27.00;41.90;;;;;;5017027;28;20196;-71
2022/06/17 12:29:00;;;;;;;1.70;1.60;;;27.00;41.90;;;;;;5015774;28;20200;-71
2022/06/17 12:31:32;;;;;;;1.85;1.75;;;27.00;41.90;;;;;;5015191;28;20244;-71
2022/06/17 12:34:05;;;;;;;1.70;1.60;;;27.00;41.90;;;;;;5015093;28;20210;-71
2022/06/17 12:36:36;;;;;;;1.90;1.80;;;26.90;41.80;;;;;;5014946;28;20188;-71
2022/06/17 12:39:08;;;;;;;1.70;1.60;;;26.90;41.90;;;;;;5014853;28;20254;-70
2022/06/17 12:41:38;;;;;;;1.77;1.67;;;26.90;42.00;;;;;;5014599;28;20231;-71
2022/06/17 12:44:17;;;;;;;2.05;1.80;;;26.90;42.60;;;;;;5014531;28;20204;-70
2022/06/17 12:46:47;;;;;;;1.88;1.77;;;26.90;42.10;;;;;;5014618;28;20619;-70
2022/06/17 12:55:02;;;;;;;1.75;1.65;;;26.80;42.80;;;;;;4979932;28;20196;-71
2022/06/17 12:57:32;;;;;;;1.85;1.70;;;26.80;42.30;;;;;;5014326;28;20196;-70
2022/06/17 13:00:04;;;;;;;1.80;1.70;;;26.80;42.40;;;;;;5014007;28;20644;-71
2022/06/17 13:02:35;;;;;;;1.77;1.67;;;26.80;42.40;;;;;;5014193;28;20310;-71
2022/06/17 13:05:09;;;;;;;1.70;1.50;;;26.80;42.50;;;;;;5015715;28;20259;-70
2022/06/17 13:07:57;;;;;;;1.90;1.80;;;26.70;42.40;;;;;;5014447;28;20203;-71
2022/06/17 13:13:45;;;;;;;1.38;1.30;;;26.70;42.50;;;;;;5013999;28;20229;-71
2022/06/17 13:16:15;;;;;;;2.33;1.70;;;26.70;42.60;;;;;;5013269;28;20663;-71
2022/06/17 13:18:45;;;;;;;1.60;1.50;;;26.60;42.60;;;;;;5013900;28;20295;-70
2022/06/17 13:21:15;;;;;;;2.08;1.88;;;26.60;42.70;;;;;;5015378;28;20781;-71
2022/06/17 13:23:44;;;;;;;1.70;1.60;;;26.60;43.30;;;;;;5013939;28;20374;-70